Aérodrome :
LOGIN :

S'inscrire | Disclaimer

   EN    FR    IT 

 










Légende :    VFR   VFR Marginal   IFR   IFR Intensif   IFR Très Intensif
Visi : 
Plafond : 
>= 8 km
>= 3000ft
5 à 8 km
1000 à 3000 ft
1500m à 5 km
500 à 1000 ft
800 à 1500m
200 à 500 ft
< 800m
< 200 ft
Symboles :   Orages  Brouillard  Fortes neiges  Fortes précipitations  Vent > 20 kt
SIGMETs :   Divers  Orages  Givrage  Turbulence  Onde Orograph.  Cendres Volcan.






- Altitude de l'aérodrome : 392 ft
- Code IATA : CDG


LFPG - Paris-Aeroport Charles De Gaulle

DERNIER METAR :
  • 280800Z 33015KT 9999 SCT013 BKN015 04/02 Q1000 NOSIG

METARs EXPIRÉS :
  • 280730Z 33014KT 9999 SCT013 BKN014 04/03 Q1000 NOSIG
  • 280700Z 32016G28KT 9999 -RA SCT011 BKN012 04/03 Q0999 TEMPO 4000 SHRA SCT011TCU
  • 280630Z 33015KT 9999 -RA FEW009 BKN012 04/03 Q0999 TEMPO 4000 SHRA SCT011TCU
  • 280600Z 32016KT 9999 -RA FEW010 BKN012 04/03 Q0999 TEMPO 4000 SHRA BKN008 SCT012TCU
  • 280530Z 32016KT 9999 -RA BKN013 04/03 Q0998 TEMPO 4000 SHRA BKN008 SCT012TCU

TAF TAF LFPG
Valide du 28 à 06h jusqu'au 29 à 12h UTC


280500Z 2806/2912 32015G25KT 9999 SCT012 BKN016 TX05/2815Z TN00/2903Z
TEMPO 2806/2814 4000 SHRA SCT012TCU BKN013
PROB30
TEMPO 2811/2813 -SHSNRA
BECMG 2815/2817 32012KT CAVOK
TEMPO 2904/2910 BKN011
PROB40
TEMPO 2905/2910 BKN006
ATIS : +33 1 48 62 10 92



MET'MAP, la Météo Aéronautique d'un coup d'oeil ! - Copyright ORBIFLY Décembre 2007 - Disclaimer

ORBIFLY MET'MAP TEAM :

Programmation & Développement : Alexandra Zaïnal
Sur une idée originale de : Baudouin d'Aumeries
Assistance à la programmation : Marc-Olivier Méhu
Soutien technique & logistique : Manuel Goepfert

Contact : metmap@orbifly.com




SOURCES & CREDITS :

   NOAA